createdAt,value
2022-08-05T00:00:34.728Z,18.19
2022-08-05T00:03:15.617Z,18.14
2022-08-05T00:06:05.236Z,18.12
2022-08-05T00:08:35.216Z,18.08
2022-08-05T00:11:23.794Z,18.04
2022-08-05T00:13:58.597Z,18.03
2022-08-05T00:16:36.053Z,18.02
2022-08-05T00:19:14.767Z,18.01
2022-08-05T00:21:42.811Z,18.01
2022-08-05T00:24:16.210Z,18.01
2022-08-05T00:26:51.759Z,17.98
2022-08-05T00:29:25.798Z,17.92
2022-08-05T00:32:13.109Z,17.87
2022-08-05T00:35:05.809Z,17.80
2022-08-05T00:37:50.670Z,17.72
2022-08-05T00:40:28.386Z,17.65
2022-08-05T00:43:00.093Z,17.61
2022-08-05T00:45:42.921Z,17.57
2022-08-05T00:48:18.568Z,17.55
2022-08-05T00:50:55.819Z,17.52
2022-08-05T00:54:00.253Z,17.53
2022-08-05T00:56:13.269Z,17.54
2022-08-05T00:58:45.673Z,17.55
2022-08-05T01:01:15.814Z,17.56
2022-08-05T01:03:53.099Z,17.56
2022-08-05T01:06:21.568Z,17.57
2022-08-05T01:09:00.699Z,17.56
2022-08-05T01:11:37.167Z,17.55
2022-08-05T01:14:10.780Z,17.53
2022-08-05T01:16:52.764Z,17.53
2022-08-05T01:19:46.225Z,17.51
2022-08-05T01:22:36.361Z,17.48
2022-08-05T01:25:19.348Z,17.45
2022-08-05T01:28:25.306Z,17.40
2022-08-05T01:31:25.362Z,17.34
2022-08-05T01:34:18.950Z,17.27
2022-08-05T01:37:24.552Z,17.20
2022-08-05T01:39:58.789Z,17.14
2022-08-05T01:42:29.967Z,17.09
2022-08-05T01:45:02.205Z,17.05
2022-08-05T01:47:39.254Z,17.00
2022-08-05T01:50:30.567Z,16.94
2022-08-05T01:53:04.956Z,16.88
2022-08-05T01:55:36.125Z,16.84
2022-08-05T01:58:29.500Z,16.81
2022-08-05T02:00:58.811Z,16.79
2022-08-05T02:03:34.529Z,16.79
2022-08-05T02:06:33.576Z,16.78
2022-08-05T02:08:58.147Z,16.78
2022-08-05T02:11:48.113Z,16.75
2022-08-05T02:14:31.929Z,16.72
2022-08-05T02:18:28.061Z,16.68
2022-08-05T02:20:23.313Z,16.63
2022-08-05T02:22:59.723Z,16.58
2022-08-05T02:25:34.270Z,16.55
2022-08-05T02:28:28.382Z,16.51
2022-08-05T02:31:06.142Z,16.47
2022-08-05T02:33:40.211Z,16.42
2022-08-05T02:36:13.664Z,16.36
2022-08-05T02:38:53.183Z,16.30
2022-08-05T02:41:28.636Z,16.25
2022-08-05T02:44:12.238Z,16.21
2022-08-05T02:46:58.580Z,16.16
2022-08-05T02:49:36.479Z,16.11
2022-08-05T02:52:10.070Z,16.08
2022-08-05T02:54:42.712Z,16.09
2022-08-05T02:58:20.021Z,16.08
2022-08-05T03:00:12.074Z,16.07
2022-08-05T03:02:42.849Z,16.08
2022-08-05T03:05:15.355Z,16.09
2022-08-05T03:08:06.584Z,16.09
2022-08-05T03:10:32.583Z,16.10
2022-08-05T03:15:28.296Z,16.09
2022-08-05T03:17:57.839Z,16.08
2022-08-05T03:20:26.610Z,16.07
2022-08-05T03:22:57.548Z,16.05
2022-08-05T03:25:33.617Z,16.03
2022-08-05T03:28:18.648Z,16.02
2022-08-05T03:30:49.626Z,16.01
2022-08-05T03:33:19.495Z,16.01
2022-08-05T03:35:48.727Z,16.01
2022-08-05T03:38:18.021Z,16.02
2022-08-05T03:41:08.139Z,16.03
2022-08-05T03:44:09.947Z,16.04
2022-08-05T03:46:29.515Z,16.03
2022-08-05T03:48:58.753Z,16.04
2022-08-05T03:52:49.072Z,16.03
2022-08-05T03:56:01.222Z,16.05
2022-08-05T03:57:42.436Z,16.09
2022-08-05T04:00:15.838Z,16.15
2022-08-05T04:02:57.857Z,16.21
2022-08-05T04:05:34.644Z,16.29
2022-08-05T04:08:29.999Z,16.37
2022-08-05T04:10:57.229Z,16.46
2022-08-05T04:13:27.827Z,16.53
2022-08-05T04:16:14.766Z,16.59
2022-08-05T04:18:47.541Z,16.63
2022-08-05T04:22:09.702Z,16.66
2022-08-05T04:24:19.203Z,16.70
2022-08-05T04:26:50.891Z,16.72
2022-08-05T04:29:19.777Z,16.75
2022-08-05T04:31:48.313Z,16.81
2022-08-05T04:34:24.484Z,16.88
2022-08-05T04:37:03.233Z,16.97
2022-08-05T04:39:32.420Z,17.03
2022-08-05T04:42:04.059Z,17.09
2022-08-05T04:44:32.354Z,17.16
2022-08-05T04:47:09.766Z,17.25
2022-08-05T04:50:02.450Z,17.36
2022-08-05T04:52:28.424Z,17.42
2022-08-05T04:54:57.684Z,17.48
2022-08-05T04:57:29.143Z,17.56
2022-08-05T04:59:58.372Z,17.64
2022-08-05T05:02:42.010Z,17.72
2022-08-05T05:05:26.333Z,17.81
2022-08-05T05:08:02.094Z,17.90
2022-08-05T05:10:33.185Z,18.00
2022-08-05T05:13:03.795Z,18.09
2022-08-05T05:15:57.341Z,18.16
2022-08-05T05:18:31.224Z,18.24
2022-08-05T05:21:03.815Z,18.34
2022-08-05T05:24:02.286Z,18.44
2022-08-05T05:26:28.778Z,18.53
2022-08-05T05:29:01.422Z,18.61
2022-08-05T05:34:01.982Z,18.82
2022-08-05T05:36:31.833Z,18.88
2022-08-05T05:39:00.320Z,18.96
2022-08-05T05:41:40.631Z,19.06
2022-08-05T05:44:35.980Z,19.19
2022-08-05T05:47:04.362Z,19.37
2022-08-05T05:49:41.376Z,19.53
2022-08-05T05:52:10.563Z,19.75
2022-08-05T05:54:50.637Z,19.94
2022-08-05T05:57:20.404Z,20.04
2022-08-05T05:59:48.780Z,20.14
2022-08-05T06:02:17.320Z,20.29
2022-08-05T06:05:03.496Z,20.40
2022-08-05T06:07:42.073Z,20.55
2022-08-05T06:10:25.754Z,20.82
2022-08-05T06:12:57.338Z,21.11
2022-08-05T06:16:31.790Z,21.32
2022-08-05T06:18:13.852Z,21.50
2022-08-05T06:20:43.512Z,21.67
2022-08-05T06:23:15.951Z,21.81
2022-08-05T06:26:03.544Z,21.92
2022-08-05T06:28:32.097Z,22.04
2022-08-05T06:31:00.486Z,22.14
2022-08-05T06:34:07.136Z,22.19
2022-08-05T06:36:27.980Z,22.20
2022-08-05T06:39:16.079Z,22.23
2022-08-05T06:41:45.019Z,22.24
2022-08-05T06:44:14.272Z,22.33
2022-08-05T06:46:43.625Z,22.41
2022-08-05T06:49:12.277Z,22.46
2022-08-05T06:51:41.818Z,22.51
2022-08-05T06:54:11.975Z,22.55
2022-08-05T06:56:54.456Z,22.65
2022-08-05T06:59:23.537Z,22.73
2022-08-05T07:01:52.775Z,22.84
2022-08-05T07:04:21.391Z,22.98
2022-08-05T07:06:50.393Z,23.10
2022-08-05T07:09:19.636Z,23.21
2022-08-05T07:11:51.697Z,23.34
2022-08-05T07:14:38.470Z,23.47
2022-08-05T07:18:02.352Z,23.58
2022-08-05T07:22:44.912Z,23.72
2022-08-05T07:25:22.546Z,23.87
2022-08-05T07:27:57.337Z,24.07
2022-08-05T07:30:38.311Z,24.26
2022-08-05T07:33:17.112Z,24.38
2022-08-05T07:36:05.022Z,24.49
2022-08-05T07:38:43.500Z,24.64
2022-08-05T07:42:13.980Z,24.76
2022-08-05T07:44:14.274Z,24.88
2022-08-05T07:46:49.722Z,24.95
2022-08-05T07:49:20.009Z,25.05
2022-08-05T07:51:54.390Z,25.23
2022-08-05T07:54:30.203Z,25.38
2022-08-05T07:57:22.477Z,25.45
2022-08-05T07:59:51.107Z,25.53
2022-08-05T08:02:26.466Z,25.60
2022-08-05T08:04:56.271Z,25.66
2022-08-05T08:07:24.764Z,25.72
2022-08-05T08:09:57.019Z,25.87
2022-08-05T08:12:36.931Z,26.08
2022-08-05T08:15:09.660Z,26.25
2022-08-05T08:17:46.276Z,26.42
2022-08-05T08:21:00.108Z,26.56
2022-08-05T08:23:11.639Z,26.75
2022-08-05T08:26:02.888Z,26.93
2022-08-05T08:28:36.103Z,27.11
2022-08-05T08:31:09.098Z,27.21
2022-08-05T08:33:38.464Z,27.38
2022-08-05T08:38:56.842Z,28.02
2022-08-05T08:41:52.563Z,28.19
2022-08-05T08:45:20.238Z,28.41
2022-08-05T08:47:47.405Z,28.53
2022-08-05T08:50:29.821Z,28.67
2022-08-05T08:53:02.540Z,28.77
2022-08-05T08:56:04.879Z,28.84
2022-08-05T08:58:37.097Z,28.90
2022-08-05T09:01:16.294Z,28.93
2022-08-05T09:03:54.440Z,28.96
2022-08-05T09:06:29.306Z,29.05
2022-08-05T09:09:01.467Z,29.02
2022-08-05T09:11:53.819Z,29.02
2022-08-05T09:14:56.298Z,28.96
2022-08-05T09:17:41.169Z,28.94
2022-08-05T09:20:05.815Z,29.05
2022-08-05T09:23:07.966Z,29.24
2022-08-05T09:26:01.028Z,29.45
2022-08-05T09:28:34.346Z,29.44
2022-08-05T09:31:44.124Z,29.40
2022-08-05T09:34:01.237Z,29.36
2022-08-05T09:36:54.527Z,29.27
2022-08-05T09:39:39.577Z,29.21
2022-08-05T09:42:23.347Z,29.16
2022-08-05T09:44:56.228Z,29.16
2022-08-05T09:47:46.531Z,29.08
2022-08-05T09:50:37.780Z,29.03
2022-08-05T09:53:07.113Z,29.11
2022-08-05T09:55:56.563Z,29.25
2022-08-05T09:58:29.227Z,29.40
2022-08-05T10:01:13.260Z,29.50
2022-08-05T10:03:58.529Z,29.56
2022-08-05T10:06:28.600Z,29.67
2022-08-05T10:09:25.137Z,29.78
2022-08-05T10:12:29.967Z,30.01
2022-08-05T10:15:21.553Z,30.23
2022-08-05T10:18:13.162Z,30.34
2022-08-05T10:20:51.305Z,30.24
2022-08-05T10:23:55.609Z,30.15
2022-08-05T10:26:15.743Z,30.15
2022-08-05T10:28:46.236Z,30.15
2022-08-05T10:32:54.721Z,30.21
2022-08-05T10:34:07.975Z,30.31
2022-08-05T10:36:38.700Z,30.37
2022-08-05T10:40:03.307Z,30.54
2022-08-05T10:42:18.274Z,30.78
2022-08-05T10:44:47.995Z,30.92
2022-08-05T10:47:26.036Z,30.84
2022-08-05T10:50:32.563Z,30.89
2022-08-05T10:53:01.671Z,30.96
2022-08-05T10:55:32.925Z,31.09
2022-08-05T10:58:20.800Z,31.28
2022-08-05T11:00:55.449Z,31.24
2022-08-05T11:03:31.745Z,31.15
2022-08-05T11:06:04.813Z,31.19
2022-08-05T11:08:37.012Z,31.27
2022-08-05T11:11:44.805Z,31.28
2022-08-05T11:14:57.478Z,31.14
2022-08-05T11:18:00.087Z,31.01
2022-08-05T11:20:39.294Z,30.80
2022-08-05T11:24:04.297Z,30.75
2022-08-05T11:26:28.790Z,30.84
2022-08-05T11:29:12.567Z,30.91
2022-08-05T11:31:56.231Z,30.82
2022-08-05T11:34:50.767Z,30.84
2022-08-05T11:38:29.987Z,30.97
2022-08-05T11:41:34.735Z,31.08
2022-08-05T11:44:05.673Z,31.13
2022-08-05T11:46:58.670Z,31.15
2022-08-05T11:49:34.104Z,31.24
2022-08-05T11:52:08.751Z,31.37
2022-08-05T11:54:43.440Z,31.48
2022-08-05T11:57:25.530Z,31.53
2022-08-05T11:59:55.977Z,31.53
2022-08-05T12:02:36.039Z,31.56
2022-08-05T12:05:07.158Z,31.59
2022-08-05T12:08:08.962Z,31.64
2022-08-05T12:10:43.402Z,31.76
2022-08-05T12:13:27.773Z,31.91
2022-08-05T12:16:14.755Z,31.81
2022-08-05T12:18:49.114Z,31.72
2022-08-05T12:21:29.899Z,31.76
2022-08-05T12:24:07.056Z,31.83
2022-08-05T12:26:38.815Z,31.93
2022-08-05T12:29:09.911Z,32.03
2022-08-05T12:31:53.739Z,32.05
2022-08-05T12:34:28.926Z,32.00
2022-08-05T12:37:26.954Z,32.00
2022-08-05T12:40:03.492Z,31.99
2022-08-05T12:42:40.428Z,31.98
2022-08-05T12:45:10.430Z,31.96
2022-08-05T12:47:43.337Z,31.97
2022-08-05T12:50:27.180Z,31.94
2022-08-05T12:53:00.135Z,31.87
2022-08-05T12:55:32.778Z,31.95
2022-08-05T12:58:51.350Z,31.97
2022-08-05T13:02:02.360Z,31.86
2022-08-05T13:03:42.080Z,31.88
2022-08-05T13:06:18.216Z,32.07
2022-08-05T13:08:51.713Z,32.22
2022-08-05T13:11:25.451Z,32.36
2022-08-05T13:14:14.725Z,32.50
2022-08-05T13:16:56.525Z,32.63
2022-08-05T13:19:27.552Z,32.80
2022-08-05T13:22:29.717Z,32.97
2022-08-05T13:25:05.832Z,33.09
2022-08-05T13:27:39.096Z,33.12
2022-08-05T13:30:34.953Z,32.95
2022-08-05T13:33:02.252Z,33.01
2022-08-05T13:35:43.237Z,33.07
2022-08-05T13:38:30.312Z,32.86
2022-08-05T13:41:00.267Z,32.63
2022-08-05T13:43:45.891Z,32.52
2022-08-05T13:46:30.623Z,32.56
2022-08-05T13:49:11.439Z,32.63
2022-08-05T13:51:46.076Z,32.58
2022-08-05T13:54:21.238Z,32.61
2022-08-05T13:56:53.724Z,32.74
2022-08-05T13:59:27.527Z,32.74
2022-08-05T14:02:00.626Z,32.61
2022-08-05T14:04:51.067Z,32.43
2022-08-05T14:08:01.041Z,32.35
2022-08-05T14:10:19.286Z,32.47
2022-08-05T14:12:57.712Z,32.57
2022-08-05T14:16:06.076Z,32.67
2022-08-05T14:18:18.348Z,32.83
2022-08-05T14:20:48.178Z,32.91
2022-08-05T14:23:23.432Z,32.95
2022-08-05T14:25:58.464Z,32.95
2022-08-05T14:28:29.549Z,32.97
2022-08-05T14:30:59.713Z,32.81
2022-08-05T14:33:32.691Z,32.67
2022-08-05T14:36:20.551Z,32.67
2022-08-05T14:38:51.238Z,32.72
2022-08-05T14:41:19.662Z,32.79
2022-08-05T14:44:01.976Z,32.87
2022-08-05T14:46:35.099Z,32.85
2022-08-05T14:49:07.410Z,32.76
2022-08-05T14:51:42.360Z,32.76
2022-08-05T14:54:27.824Z,32.81
2022-08-05T14:56:59.598Z,32.80
2022-08-05T14:59:29.356Z,32.75
2022-08-05T15:01:58.256Z,32.64
2022-08-05T15:04:29.028Z,32.57
2022-08-05T15:06:57.356Z,32.39
2022-08-05T15:09:52.705Z,32.20
2022-08-05T15:12:16.610Z,32.23
2022-08-05T15:14:50.583Z,32.29
2022-08-05T15:17:45.896Z,32.34
2022-08-05T15:20:19.055Z,32.39
2022-08-05T15:22:54.215Z,32.47
2022-08-05T15:25:51.185Z,32.55
2022-08-05T15:28:14.796Z,32.46
2022-08-05T15:30:45.852Z,32.43
2022-08-05T15:33:56.922Z,32.47
2022-08-05T15:36:16.674Z,32.43
2022-08-05T15:38:46.448Z,32.40
2022-08-05T15:41:21.972Z,32.45
2022-08-05T15:43:54.525Z,32.49
2022-08-05T15:46:24.637Z,32.57
2022-08-05T15:49:01.001Z,32.62
2022-08-05T15:52:03.608Z,32.56
2022-08-05T15:54:34.943Z,32.37
2022-08-05T15:57:07.617Z,32.22
2022-08-05T15:59:36.521Z,32.17
2022-08-05T16:02:19.441Z,32.10
2022-08-05T16:04:49.062Z,32.01
2022-08-05T16:07:17.118Z,31.98
2022-08-05T16:09:46.287Z,31.93
2022-08-05T16:12:15.290Z,31.84
2022-08-05T16:14:43.653Z,31.76
2022-08-05T16:17:12.813Z,31.72
2022-08-05T16:20:05.501Z,31.75
2022-08-05T16:22:33.938Z,31.75
2022-08-05T16:25:05.365Z,31.73
2022-08-05T16:27:59.680Z,31.72
2022-08-05T16:30:29.153Z,31.65
2022-08-05T16:32:58.520Z,31.55
2022-08-05T16:35:28.651Z,31.45
2022-08-05T16:38:16.146Z,31.35
2022-08-05T16:40:55.487Z,31.30
2022-08-05T16:43:30.918Z,31.25
2022-08-05T16:46:03.703Z,31.19
2022-08-05T16:48:38.781Z,31.11
2022-08-05T16:51:10.125Z,31.03
2022-08-05T16:54:06.167Z,30.98
2022-08-05T16:56:30.689Z,30.94
2022-08-05T16:58:58.956Z,30.92
2022-08-05T17:01:53.115Z,30.87
2022-08-05T17:04:18.816Z,30.82
2022-08-05T17:06:53.242Z,30.76
2022-08-05T17:09:23.057Z,30.71
2022-08-05T17:11:59.161Z,30.63
2022-08-05T17:14:37.730Z,30.54
2022-08-05T17:17:14.329Z,30.45
2022-08-05T17:19:46.277Z,30.36
2022-08-05T17:22:25.113Z,30.24
2022-08-05T17:24:58.785Z,30.15
2022-08-05T17:27:34.016Z,30.01
2022-08-05T17:30:18.602Z,29.88
2022-08-05T17:32:47.999Z,29.76
2022-08-05T17:35:20.571Z,29.67
2022-08-05T17:37:49.470Z,29.57
2022-08-05T17:40:22.584Z,29.47
2022-08-05T17:42:52.970Z,29.37
2022-08-05T17:45:23.054Z,29.26
2022-08-05T17:47:55.412Z,29.13
2022-08-05T17:50:29.919Z,29.00
2022-08-05T17:53:00.901Z,28.86
2022-08-05T17:55:37.336Z,28.72
2022-08-05T17:58:12.660Z,28.62
2022-08-05T18:00:47.239Z,28.47
2022-08-05T18:03:33.469Z,28.33
2022-08-05T18:06:12.018Z,28.22
2022-08-05T18:08:44.742Z,28.11
2022-08-05T18:11:23.794Z,28.02
2022-08-05T18:13:54.709Z,27.92
2022-08-05T18:16:23.767Z,27.82
2022-08-05T18:18:52.190Z,27.71
2022-08-05T18:21:22.742Z,27.63
2022-08-05T18:23:55.533Z,27.53
2022-08-05T18:26:29.584Z,27.41
2022-08-05T18:29:00.325Z,27.27
2022-08-05T18:31:33.090Z,27.14
2022-08-05T18:34:06.232Z,26.97
2022-08-05T18:36:41.137Z,26.76
2022-08-05T18:39:41.933Z,26.58
2022-08-05T18:42:06.323Z,26.39
2022-08-05T18:44:49.287Z,26.21
2022-08-05T18:47:26.874Z,26.02
2022-08-05T18:50:15.516Z,25.83
2022-08-05T18:52:50.887Z,25.65
2022-08-05T18:55:22.261Z,25.47
2022-08-05T18:57:53.838Z,25.28
2022-08-05T19:00:27.105Z,25.09
2022-08-05T19:03:03.634Z,24.93
2022-08-05T19:06:13.251Z,24.78
2022-08-05T19:08:30.643Z,24.63
2022-08-05T19:11:04.821Z,24.50
2022-08-05T19:13:36.098Z,24.38
2022-08-05T19:16:25.198Z,24.28
2022-08-05T19:18:56.810Z,24.18
2022-08-05T19:21:27.514Z,24.10
2022-08-05T19:24:07.832Z,24.03
2022-08-05T19:26:54.889Z,23.97
2022-08-05T19:29:26.603Z,23.88
2022-08-05T19:32:11.496Z,23.81
2022-08-05T19:34:40.624Z,23.75
2022-08-05T19:37:10.322Z,23.69
2022-08-05T19:39:45.820Z,23.64
2022-08-05T19:42:35.002Z,23.59
2022-08-05T19:45:05.901Z,23.54
2022-08-05T19:47:37.555Z,23.49
2022-08-05T19:50:07.859Z,23.43
2022-08-05T19:52:38.840Z,23.38
2022-08-05T19:56:15.133Z,23.34
2022-08-05T19:58:14.671Z,23.28
2022-08-05T20:00:44.153Z,23.21
2022-08-05T20:03:13.042Z,23.18
2022-08-05T20:05:43.215Z,23.16
2022-08-05T20:08:17.953Z,23.11
2022-08-05T20:10:49.530Z,23.09
2022-08-05T20:13:54.541Z,23.06
2022-08-05T20:16:07.051Z,23.03
2022-08-05T20:18:36.155Z,22.99
2022-08-05T20:21:06.966Z,22.94
2022-08-05T20:23:40.449Z,22.88
2022-08-05T20:26:21.883Z,22.83
2022-08-05T20:28:55.780Z,22.78
2022-08-05T20:31:36.773Z,22.74
2022-08-05T20:34:12.485Z,22.68
2022-08-05T20:36:43.394Z,22.61
2022-08-05T20:39:16.119Z,22.55
2022-08-05T20:41:47.728Z,22.49
2022-08-05T20:44:29.857Z,22.46
2022-08-05T20:47:01.191Z,22.41
2022-08-05T20:49:29.309Z,22.35
2022-08-05T20:51:58.139Z,22.32
2022-08-05T20:54:55.229Z,22.27
2022-08-05T20:57:24.883Z,22.22
2022-08-05T21:00:20.011Z,22.17
2022-08-05T21:02:57.877Z,22.14
2022-08-05T21:05:37.991Z,22.09
2022-08-05T21:08:14.179Z,22.03
2022-08-05T21:10:48.700Z,21.98
2022-08-05T21:13:36.796Z,21.93
2022-08-05T21:16:06.380Z,21.88
2022-08-05T21:18:34.490Z,21.84
2022-08-05T21:21:04.105Z,21.79
2022-08-05T21:23:37.486Z,21.75
2022-08-05T21:26:08.194Z,21.70
2022-08-05T21:28:47.748Z,21.67
2022-08-05T21:31:19.635Z,21.63
2022-08-05T21:33:49.563Z,21.58
2022-08-05T21:36:27.455Z,21.54
2022-08-05T21:38:58.468Z,21.50
2022-08-05T21:41:33.684Z,21.45
2022-08-05T21:44:04.059Z,21.40
2022-08-05T21:46:34.650Z,21.36
2022-08-05T21:49:08.137Z,21.30
2022-08-05T21:52:21.927Z,21.25
2022-08-05T21:54:41.484Z,21.19
2022-08-05T21:57:30.657Z,21.14
2022-08-05T22:00:06.970Z,21.11
2022-08-05T22:02:43.744Z,21.08
2022-08-05T22:05:13.071Z,21.05
2022-08-05T22:07:59.492Z,21.01
2022-08-05T22:10:30.934Z,20.96
2022-08-05T22:14:05.050Z,20.92
2022-08-05T22:16:01.704Z,20.87
2022-08-05T22:18:35.831Z,20.82
2022-08-05T22:21:04.941Z,20.77
2022-08-05T22:24:12.817Z,20.73
2022-08-05T22:27:00.019Z,20.68
2022-08-05T22:29:30.790Z,20.65
2022-08-05T22:32:03.255Z,20.63
2022-08-05T22:34:32.935Z,20.63
2022-08-05T22:37:03.807Z,20.63
2022-08-05T22:39:34.605Z,20.63
2022-08-05T22:42:10.116Z,20.60
2022-08-05T22:44:48.446Z,20.56
2022-08-05T22:47:29.365Z,20.52
2022-08-05T22:50:20.595Z,20.48
2022-08-05T22:52:52.468Z,20.45
2022-08-05T22:55:22.157Z,20.43
2022-08-05T22:57:53.969Z,20.41
2022-08-05T23:00:23.845Z,20.39
2022-08-05T23:02:53.823Z,20.36
2022-08-05T23:05:22.800Z,20.34
2022-08-05T23:07:51.914Z,20.30
2022-08-05T23:10:23.608Z,20.25
2022-08-05T23:12:54.718Z,20.20
2022-08-05T23:15:26.974Z,20.16
2022-08-05T23:18:02.191Z,20.12
2022-08-05T23:20:32.936Z,20.09
2022-08-05T23:23:05.839Z,20.06
2022-08-05T23:25:53.571Z,20.03
2022-08-05T23:28:28.923Z,19.98
2022-08-05T23:31:16.706Z,19.96
2022-08-05T23:34:03.712Z,19.93
2022-08-05T23:36:38.414Z,19.90
2022-08-05T23:39:09.737Z,19.88
2022-08-05T23:41:47.536Z,19.85
2022-08-05T23:44:16.918Z,19.81
2022-08-05T23:46:47.865Z,19.77
2022-08-05T23:49:22.335Z,19.74
2022-08-05T23:52:12.028Z,19.70
2022-08-05T23:54:46.012Z,19.67
2022-08-05T23:57:14.082Z,19.63
